Time;durP1;ratioP1;P1;durP2;ratioP2;P2;SDS_P1;SDS_P2;PMS_P1;PMS_P2;Temp;Humidity;BMP_temperature;BMP_pressure;BME280_temperature;BME280_humidity;BME280_pressure;Samples;Min_cycle;Max_cycle;Signal;HPM_P1;HPM_P2
2022/04/07 00:00:58;;;;;;;8.13;3.08;;;;;;;;;;6260508;28;20044;-80
2022/04/07 00:03:59;;;;;;;5.80;3.30;;;;;;;;;;6270117;28;20530;-79
2022/04/07 00:07:01;;;;;;;5.05;2.90;;;;;;;;;;6267729;28;20123;-80
2022/04/07 00:10:03;;;;;;;4.60;3.38;;;;;;;;;;6267686;28;20091;-80
2022/04/07 00:13:05;;;;;;;5.18;2.92;;;;;;;;;;6268245;28;20065;-80
2022/04/07 00:16:08;;;;;;;5.38;3.13;;;;;;;;;;6266214;28;20110;-80
2022/04/07 00:19:10;;;;;;;5.70;2.88;;;;;;;;;;6295248;28;20055;-80
2022/04/07 00:22:11;;;;;;;4.35;2.70;;;;;;;;;;6289852;28;20060;-79
2022/04/07 00:25:13;;;;;;;6.38;3.20;;;;;;;;;;6289721;28;20059;-80
2022/04/07 00:28:15;;;;;;;5.20;2.83;;;;;;;;;;6294198;28;20417;-80
2022/04/07 00:31:17;;;;;;;3.58;2.17;;;;;;;;;;6272305;28;20073;-81
2022/04/07 00:34:19;;;;;;;4.88;2.33;;;;;;;;;;6269476;28;20048;-80
2022/04/07 00:37:23;;;;;;;3.95;2.45;;;;;;;;;;6300767;28;20072;-80
2022/04/07 00:40:24;;;;;;;4.47;3.10;;;;;;;;;;6281713;28;20127;-80
2022/04/07 00:43:31;;;;;;;6.82;2.53;;;;;;;;;;6294055;28;20101;-80
2022/04/07 00:46:32;;;;;;;4.70;2.17;;;;;;;;;;6291161;28;20075;-80
2022/04/07 00:49:34;;;;;;;5.25;2.75;;;;;;;;;;6293293;28;20431;-80
2022/04/07 00:52:46;;;;;;;5.70;2.85;;;;;;;;;;6287563;28;20146;-79
2022/04/07 00:55:51;;;;;;;3.87;2.60;;;;;;;;;;6268932;28;20060;-80
2022/04/07 00:58:54;;;;;;;3.95;2.30;;;;;;;;;;6269964;28;20409;-80
2022/04/07 01:01:56;;;;;;;6.67;2.60;;;;;;;;;;6268861;28;20087;-79
2022/04/07 01:04:58;;;;;;;4.65;2.65;;;;;;;;;;6269059;28;20041;-81
2022/04/07 01:08:00;;;;;;;5.45;2.55;;;;;;;;;;6283144;28;20065;-80
2022/04/07 01:11:02;;;;;;;4.32;2.20;;;;;;;;;;6267387;28;20099;-80
2022/04/07 01:14:04;;;;;;;3.28;2.45;;;;;;;;;;6266359;28;20293;-81
2022/04/07 01:17:05;;;;;;;3.53;2.50;;;;;;;;;;6268229;28;20036;-80
2022/04/07 01:20:08;;;;;;;4.30;1.95;;;;;;;;;;6268548;28;20098;-79
2022/04/07 01:23:09;;;;;;;6.45;2.40;;;;;;;;;;6266687;28;20414;-80
2022/04/07 01:26:11;;;;;;;2.85;2.15;;;;;;;;;;6267871;28;20092;-80
2022/04/07 01:29:15;;;;;;;4.15;2.63;;;;;;;;;;6270135;28;20083;-79
2022/04/07 01:32:22;;;;;;;3.00;1.90;;;;;;;;;;6290205;28;20087;-80
2022/04/07 01:35:24;;;;;;;3.70;2.40;;;;;;;;;;6293613;28;20512;-80
2022/04/07 01:38:26;;;;;;;4.63;2.40;;;;;;;;;;6293066;27;20583;-80
2022/04/07 01:41:28;;;;;;;3.17;1.90;;;;;;;;;;6290599;28;20071;-79
2022/04/07 01:44:33;;;;;;;4.22;2.80;;;;;;;;;;6265832;28;20578;-79
2022/04/07 01:47:37;;;;;;;4.13;2.17;;;;;;;;;;6252251;28;20073;-78
2022/04/07 01:50:40;;;;;;;3.80;2.08;;;;;;;;;;6274496;28;20067;-80
2022/04/07 01:53:42;;;;;;;4.00;2.38;;;;;;;;;;6284893;28;20060;-80
2022/04/07 01:56:44;;;;;;;3.78;2.50;;;;;;;;;;6261776;28;20088;-79
2022/04/07 01:59:46;;;;;;;5.32;2.38;;;;;;;;;;6270161;28;20064;-80
2022/04/07 02:02:49;;;;;;;5.28;2.55;;;;;;;;;;6293086;28;20049;-79
2022/04/07 02:05:51;;;;;;;5.18;2.53;;;;;;;;;;6289706;28;20044;-80
2022/04/07 02:08:53;;;;;;;4.45;2.40;;;;;;;;;;6296976;28;20049;-79
2022/04/07 02:11:54;;;;;;;2.33;1.67;;;;;;;;;;6271451;28;20547;-80
2022/04/07 02:14:57;;;;;;;2.58;1.98;;;;;;;;;;6283798;28;20182;-79
2022/04/07 02:17:58;;;;;;;2.33;1.10;;;;;;;;;;6267507;28;20126;-79
2022/04/07 02:21:00;;;;;;;0.95;0.85;;;;;;;;;;6265959;28;20040;-79
2022/04/07 02:24:02;;;;;;;0.85;0.70;;;;;;;;;;6267233;28;20310;-79
2022/04/07 02:27:04;;;;;;;0.80;0.55;;;;;;;;;;6267202;28;20044;-80
2022/04/07 02:30:13;;;;;;;1.10;0.47;;;;;;;;;;6281900;28;20340;-80
2022/04/07 02:33:15;;;;;;;0.70;0.32;;;;;;;;;;6266540;28;20163;-80
2022/04/07 02:36:19;;;;;;;0.20;0.20;;;;;;;;;;6268726;28;20114;-80
2022/04/07 02:39:20;;;;;;;0.47;0.47;;;;;;;;;;6290296;28;20044;-80
2022/04/07 02:42:22;;;;;;;0.52;0.40;;;;;;;;;;6295085;28;20101;-79
2022/04/07 02:45:24;;;;;;;2.20;0.55;;;;;;;;;;6294353;28;20189;-80
2022/04/07 02:48:25;;;;;;;1.10;0.75;;;;;;;;;;6296100;28;20074;-79
2022/04/07 02:51:27;;;;;;;1.23;0.40;;;;;;;;;;6295609;28;20068;-80
2022/04/07 02:54:29;;;;;;;1.95;0.50;;;;;;;;;;6274345;28;20173;-79
2022/04/07 02:57:31;;;;;;;0.73;0.73;;;;;;;;;;6330255;28;20439;-81
2022/04/07 03:00:33;;;;;;;1.25;0.50;;;;;;;;;;6287816;28;20068;-81
2022/04/07 03:03:34;;;;;;;2.15;0.60;;;;;;;;;;6276809;28;20269;-80
2022/04/07 03:06:36;;;;;;;2.60;0.70;;;;;;;;;;6294730;28;20058;-79
2022/04/07 03:09:38;;;;;;;2.65;0.82;;;;;;;;;;6283640;28;20122;-81
2022/04/07 03:12:39;;;;;;;2.97;1.52;;;;;;;;;;6281583;28;20075;-80
2022/04/07 03:15:41;;;;;;;2.65;1.75;;;;;;;;;;6293613;28;20439;-80
2022/04/07 03:18:43;;;;;;;4.30;2.08;;;;;;;;;;6309614;28;20103;-81
2022/04/07 03:21:45;;;;;;;2.95;1.80;;;;;;;;;;6294077;28;20145;-80
2022/04/07 03:24:47;;;;;;;3.00;2.10;;;;;;;;;;6271049;28;20119;-79
2022/04/07 03:27:48;;;;;;;4.78;1.90;;;;;;;;;;6268093;28;20045;-81
2022/04/07 03:30:50;;;;;;;3.15;1.80;;;;;;;;;;6272420;28;20091;-80
2022/04/07 03:33:52;;;;;;;2.83;1.80;;;;;;;;;;6251395;28;20049;-78
2022/04/07 03:36:53;;;;;;;2.97;1.77;;;;;;;;;;6269410;28;20072;-79
2022/04/07 03:39:55;;;;;;;2.92;1.85;;;;;;;;;;6291378;28;20044;-80
2022/04/07 03:42:56;;;;;;;2.67;1.90;;;;;;;;;;6294023;28;20064;-79
2022/04/07 03:45:58;;;;;;;2.38;1.73;;;;;;;;;;6280926;28;20052;-80
2022/04/07 03:49:00;;;;;;;2.53;1.40;;;;;;;;;;6292999;28;20126;-78
2022/04/07 03:52:02;;;;;;;4.63;1.92;;;;;;;;;;6293418;28;20064;-77
2022/04/07 03:55:04;;;;;;;2.83;1.55;;;;;;;;;;6269159;28;20060;-80
2022/04/07 03:58:06;;;;;;;2.17;1.30;;;;;;;;;;6269957;28;20486;-80
2022/04/07 04:01:09;;;;;;;3.10;1.45;;;;;;;;;;6285411;28;20114;-80
2022/04/07 04:04:11;;;;;;;1.45;1.30;;;;;;;;;;6308013;28;20055;-80
2022/04/07 04:07:12;;;;;;;2.10;1.45;;;;;;;;;;6284502;28;20041;-80
2022/04/07 04:10:14;;;;;;;2.58;1.30;;;;;;;;;;6243812;28;20124;-80
2022/04/07 04:13:16;;;;;;;1.73;1.20;;;;;;;;;;6259460;28;20179;-81
2022/04/07 04:16:17;;;;;;;2.13;1.30;;;;;;;;;;6284889;28;20682;-81
2022/04/07 04:19:19;;;;;;;3.33;1.33;;;;;;;;;;6292855;28;20072;-79
2022/04/07 04:22:21;;;;;;;1.60;1.20;;;;;;;;;;6285069;28;20053;-80
2022/04/07 04:25:23;;;;;;;1.80;1.38;;;;;;;;;;6293438;28;20059;-79
2022/04/07 04:28:24;;;;;;;2.58;1.10;;;;;;;;;;6291458;28;20202;-79
2022/04/07 04:31:26;;;;;;;1.60;1.27;;;;;;;;;;6284404;28;20121;-80
2022/04/07 04:34:28;;;;;;;2.83;1.30;;;;;;;;;;6268654;28;20045;-80
2022/04/07 04:37:29;;;;;;;1.45;1.17;;;;;;;;;;6268034;28;20112;-79
2022/04/07 04:40:31;;;;;;;2.40;1.40;;;;;;;;;;6281499;28;20175;-79
2022/04/07 04:43:33;;;;;;;2.05;1.35;;;;;;;;;;6268661;28;20048;-77
2022/04/07 04:46:34;;;;;;;1.75;1.40;;;;;;;;;;6277132;28;20147;-79
2022/04/07 04:49:40;;;;;;;2.00;1.40;;;;;;;;;;6292857;28;20044;-80
2022/04/07 04:52:42;;;;;;;1.50;1.30;;;;;;;;;;6289302;28;20119;-80
2022/04/07 04:55:43;;;;;;;2.80;1.50;;;;;;;;;;6283040;28;20118;-79
2022/04/07 04:58:45;;;;;;;3.38;1.42;;;;;;;;;;6268212;28;20183;-79
2022/04/07 05:01:46;;;;;;;2.28;1.63;;;;;;;;;;6288560;28;20127;-79
2022/04/07 05:04:49;;;;;;;1.67;1.50;;;;;;;;;;6292971;28;20048;-79
2022/04/07 05:07:50;;;;;;;1.67;1.33;;;;;;;;;;6306173;28;20642;-79
2022/04/07 05:10:52;;;;;;;2.03;1.60;;;;;;;;;;6268274;28;20103;-80
2022/04/07 05:13:54;;;;;;;1.95;1.50;;;;;;;;;;6268238;28;20120;-79
2022/04/07 05:16:55;;;;;;;3.03;1.45;;;;;;;;;;6267752;28;20476;-79
2022/04/07 05:19:57;;;;;;;3.47;1.40;;;;;;;;;;6267319;28;20044;-80
2022/04/07 05:22:59;;;;;;;2.35;1.70;;;;;;;;;;6268137;28;20063;-80
2022/04/07 05:26:00;;;;;;;3.00;1.70;;;;;;;;;;6267967;28;20053;-80
2022/04/07 05:29:02;;;;;;;2.85;1.90;;;;;;;;;;6267759;28;20041;-80
2022/04/07 05:32:04;;;;;;;2.88;1.75;;;;;;;;;;6267417;28;20060;-79
2022/04/07 05:35:06;;;;;;;2.33;1.67;;;;;;;;;;6267861;28;20501;-80
2022/04/07 05:38:09;;;;;;;3.50;1.95;;;;;;;;;;6265398;28;20044;-80
2022/04/07 05:41:10;;;;;;;1.90;1.30;;;;;;;;;;6267771;28;20517;-80
2022/04/07 05:44:12;;;;;;;2.72;1.60;;;;;;;;;;6264875;28;20454;-80
2022/04/07 05:47:14;;;;;;;3.25;1.63;;;;;;;;;;6296707;28;20052;-80
2022/04/07 05:50:17;;;;;;;3.00;1.65;;;;;;;;;;6292482;28;20044;-80
2022/04/07 05:53:18;;;;;;;3.00;1.70;;;;;;;;;;6306308;28;20033;-80
2022/04/07 05:56:20;;;;;;;3.33;1.55;;;;;;;;;;6267469;28;20052;-78
2022/04/07 05:59:22;;;;;;;2.50;1.50;;;;;;;;;;6266449;28;20104;-79
2022/04/07 06:02:23;;;;;;;3.42;1.60;;;;;;;;;;6266471;28;20106;-79
2022/04/07 06:05:25;;;;;;;2.38;1.10;;;;;;;;;;6291618;28;20802;-80
2022/04/07 06:08:27;;;;;;;2.65;1.52;;;;;;;;;;6286294;28;20048;-78
2022/04/07 06:11:28;;;;;;;2.13;1.27;;;;;;;;;;6265374;28;20099;-79
2022/04/07 06:14:30;;;;;;;3.90;1.27;;;;;;;;;;6265414;28;20502;-79
2022/04/07 06:17:39;;;;;;;2.33;1.10;;;;;;;;;;6266301;28;20061;-78
2022/04/07 06:20:41;;;;;;;1.95;1.25;;;;;;;;;;6264598;28;20056;-79
2022/04/07 06:23:43;;;;;;;2.63;1.10;;;;;;;;;;6281043;28;20700;-79
2022/04/07 06:26:45;;;;;;;2.95;1.25;;;;;;;;;;6266397;28;20056;-79
2022/04/07 06:29:46;;;;;;;2.42;1.17;;;;;;;;;;6265795;28;20041;-79
2022/04/07 06:32:49;;;;;;;2.63;1.10;;;;;;;;;;6265527;28;20106;-80
2022/04/07 06:35:51;;;;;;;1.52;1.15;;;;;;;;;;6265887;28;20049;-78
2022/04/07 06:38:53;;;;;;;1.23;1.13;;;;;;;;;;6265402;28;20090;-79
2022/04/07 06:41:55;;;;;;;2.65;1.15;;;;;;;;;;6264948;28;20075;-80
2022/04/07 06:44:56;;;;;;;3.03;1.08;;;;;;;;;;6264902;28;20118;-79
2022/04/07 06:47:58;;;;;;;3.30;1.23;;;;;;;;;;6286669;28;20055;-79
2022/04/07 06:50:59;;;;;;;4.05;1.48;;;;;;;;;;6289769;28;20126;-77
2022/04/07 06:54:01;;;;;;;3.45;1.13;;;;;;;;;;6286812;28;20072;-80
2022/04/07 06:57:03;;;;;;;2.83;1.33;;;;;;;;;;6280444;28;20037;-79
2022/04/07 07:00:05;;;;;;;3.95;1.73;;;;;;;;;;6239653;28;20191;-81
2022/04/07 07:03:07;;;;;;;2.70;1.30;;;;;;;;;;6245796;28;20168;-81
2022/04/07 07:06:09;;;;;;;2.30;1.08;;;;;;;;;;6290919;28;20037;-80
2022/04/07 07:09:10;;;;;;;3.40;1.05;;;;;;;;;;6276811;28;20164;-82
2022/04/07 07:12:12;;;;;;;2.65;1.00;;;;;;;;;;6265867;28;20445;-80
2022/04/07 07:15:14;;;;;;;1.70;0.93;;;;;;;;;;6266059;28;20132;-81
2022/04/07 07:18:16;;;;;;;2.35;1.00;;;;;;;;;;6265278;28;20044;-80
2022/04/07 07:21:18;;;;;;;1.17;0.80;;;;;;;;;;6265881;28;20615;-81
2022/04/07 07:24:19;;;;;;;1.00;0.70;;;;;;;;;;6271032;28;20152;-81
2022/04/07 07:27:21;;;;;;;2.90;1.20;;;;;;;;;;6270966;28;20281;-81
2022/04/07 07:30:23;;;;;;;1.83;0.75;;;;;;;;;;6280463;28;20048;-80
2022/04/07 07:33:31;;;;;;;0.80;0.80;;;;;;;;;;6273825;28;20056;-80
2022/04/07 07:36:32;;;;;;;3.58;0.80;;;;;;;;;;6271674;28;20057;-81
2022/04/07 07:39:34;;;;;;;3.38;0.70;;;;;;;;;;6287171;27;20143;-80
2022/04/07 07:42:40;;;;;;;1.40;0.50;;;;;;;;;;6249997;28;20131;-80
2022/04/07 07:45:41;;;;;;;0.52;0.40;;;;;;;;;;6253254;28;20037;-81
2022/04/07 07:48:54;;;;;;;1.17;0.60;;;;;;;;;;6269148;28;20048;-80
2022/04/07 07:51:55;;;;;;;0.93;0.50;;;;;;;;;;6273285;28;20407;-80
2022/04/07 07:54:57;;;;;;;0.98;0.65;;;;;;;;;;6274534;28;20037;-79
2022/04/07 07:57:59;;;;;;;0.30;0.30;;;;;;;;;;6272372;28;20047;-81
2022/04/07 08:01:00;;;;;;;0.30;0.30;;;;;;;;;;6280022;28;20045;-81
2022/04/07 08:04:02;;;;;;;0.88;0.65;;;;;;;;;;6279461;28;20049;-79
2022/04/07 08:07:04;;;;;;;0.77;0.50;;;;;;;;;;6275941;28;20100;-81
2022/04/07 08:10:06;;;;;;;0.45;0.45;;;;;;;;;;6278391;28;20106;-80
2022/04/07 08:13:08;;;;;;;1.10;0.30;;;;;;;;;;6292922;27;20186;-80
2022/04/07 08:16:10;;;;;;;0.85;0.45;;;;;;;;;;6273737;28;20041;-80
2022/04/07 08:19:12;;;;;;;0.43;0.43;;;;;;;;;;6244091;28;20526;-80
2022/04/07 08:22:14;;;;;;;0.82;0.60;;;;;;;;;;6263150;28;20045;-81
2022/04/07 08:25:16;;;;;;;1.35;0.80;;;;;;;;;;6270421;28;20041;-80
2022/04/07 08:28:18;;;;;;;0.98;0.88;;;;;;;;;;6268865;28;20140;-81
2022/04/07 08:31:20;;;;;;;1.85;0.90;;;;;;;;;;6283280;28;20040;-80
2022/04/07 08:34:22;;;;;;;1.35;1.00;;;;;;;;;;6267432;28;20049;-81
2022/04/07 08:37:24;;;;;;;1.63;1.02;;;;;;;;;;6267236;28;20064;-81
2022/04/07 08:40:27;;;;;;;1.90;1.20;;;;;;;;;;6266954;28;20076;-79
2022/04/07 08:43:29;;;;;;;1.13;0.93;;;;;;;;;;6266991;28;20079;-80
2022/04/07 08:46:32;;;;;;;1.60;1.00;;;;;;;;;;6283039;28;20064;-81
2022/04/07 08:49:37;;;;;;;3.47;0.90;;;;;;;;;;6288016;28;20131;-79
2022/04/07 08:52:39;;;;;;;1.40;1.15;;;;;;;;;;6271705;28;20044;-79
2022/04/07 08:55:41;;;;;;;0.95;0.70;;;;;;;;;;6271577;28;20273;-79
2022/04/07 08:58:42;;;;;;;0.98;0.65;;;;;;;;;;6272654;28;20509;-79
2022/04/07 09:01:44;;;;;;;2.45;1.40;;;;;;;;;;6274505;28;20045;-80
2022/04/07 09:04:46;;;;;;;0.45;0.43;;;;;;;;;;6272288;28;20098;-78
2022/04/07 09:07:48;;;;;;;0.60;0.40;;;;;;;;;;6283672;28;20139;-79
2022/04/07 09:10:56;;;;;;;1.08;0.50;;;;;;;;;;6278096;28;20060;-79
2022/04/07 09:13:58;;;;;;;0.55;0.55;;;;;;;;;;6264781;28;20051;-80
2022/04/07 09:17:00;;;;;;;0.82;0.50;;;;;;;;;;6264699;28;20129;-80
2022/04/07 09:20:09;;;;;;;0.40;0.40;;;;;;;;;;6265851;28;20126;-80
2022/04/07 09:23:12;;;;;;;0.30;0.30;;;;;;;;;;6271315;28;20036;-80
2022/04/07 09:26:15;;;;;;;0.35;0.30;;;;;;;;;;6266299;28;20202;-80
2022/04/07 09:29:17;;;;;;;0.45;0.45;;;;;;;;;;6264926;28;20567;-79
2022/04/07 09:32:26;;;;;;;0.90;0.70;;;;;;;;;;6266431;28;20048;-79
2022/04/07 09:35:28;;;;;;;1.08;0.52;;;;;;;;;;6272132;28;20049;-79
2022/04/07 09:38:31;;;;;;;0.50;0.50;;;;;;;;;;6274034;28;20129;-79
2022/04/07 09:41:33;;;;;;;0.38;0.30;;;;;;;;;;6274229;28;20048;-77
2022/04/07 09:44:38;;;;;;;0.40;0.40;;;;;;;;;;6274894;28;20098;-78
2022/04/07 09:47:41;;;;;;;0.85;0.40;;;;;;;;;;6274541;28;20041;-80
2022/04/07 09:51:02;;;;;;;0.88;0.20;;;;;;;;;;6293693;28;20040;-80
2022/04/07 09:54:07;;;;;;;0.30;0.30;;;;;;;;;;6280904;28;20118;-81
2022/04/07 09:57:12;;;;;;;0.50;0.50;;;;;;;;;;6269178;28;20104;-80
2022/04/07 10:00:14;;;;;;;0.50;0.47;;;;;;;;;;6270228;28;20048;-81
2022/04/07 10:03:16;;;;;;;0.52;0.30;;;;;;;;;;6292643;28;20060;-80
2022/04/07 10:06:19;;;;;;;0.30;0.30;;;;;;;;;;6296297;28;20155;-80
2022/04/07 10:09:21;;;;;;;0.40;0.40;;;;;;;;;;6277011;28;20041;-79
2022/04/07 10:12:24;;;;;;;0.30;0.30;;;;;;;;;;6282238;28;20459;-80
2022/04/07 10:15:26;;;;;;;;;;;;;;;;;;6243851;28;20041;-78
2022/04/07 10:18:33;;;;;;;0.30;0.30;;;;;;;;;;6242132;28;19921;-78
2022/04/07 10:21:42;;;;;;;0.22;0.22;;;;;;;;;;6264236;28;20057;-78
2022/04/07 10:24:55;;;;;;;2.70;0.73;;;;;;;;;;6266678;28;20068;-79
2022/04/07 10:28:07;;;;;;;0.52;0.30;;;;;;;;;;6267545;28;20781;-79
2022/04/07 10:31:14;;;;;;;2.30;0.50;;;;;;;;;;6282951;28;20099;-79
2022/04/07 10:34:30;;;;;;;0.50;0.20;;;;;;;;;;6268095;28;20041;-78
2022/04/07 10:37:45;;;;;;;0.77;0.30;;;;;;;;;;6269448;28;20071;-80
2022/04/07 10:40:49;;;;;;;0.30;0.30;;;;;;;;;;6284502;28;20052;-79
2022/04/07 10:44:06;;;;;;;0.22;0.22;;;;;;;;;;6290546;28;20041;-78
2022/04/07 10:47:10;;;;;;;0.30;0.30;;;;;;;;;;6279379;28;20418;-79
2022/04/07 10:50:12;;;;;;;0.20;0.15;;;;;;;;;;6288376;28;20082;-77
2022/04/07 10:53:40;;;;;;;0.38;0.30;;;;;;;;;;6276646;28;20175;-77
2022/04/07 10:56:49;;;;;;;0.47;0.30;;;;;;;;;;6264980;28;20478;-79
2022/04/07 10:59:52;;;;;;;0.45;0.25;;;;;;;;;;6289249;28;20040;-80
2022/04/07 11:03:14;;;;;;;1.65;0.30;;;;;;;;;;6312948;28;20155;-81
2022/04/07 11:06:21;;;;;;;0.70;0.40;;;;;;;;;;6297926;28;20459;-80
2022/04/07 11:09:23;;;;;;;0.73;0.30;;;;;;;;;;6292135;28;20128;-77
2022/04/07 11:12:34;;;;;;;0.90;0.40;;;;;;;;;;6271026;28;20045;-79
2022/04/07 11:15:43;;;;;;;0.20;0.20;;;;;;;;;;6271079;28;20112;-78
2022/04/07 11:18:54;;;;;;;1.02;0.20;;;;;;;;;;6270297;28;20064;-80
2022/04/07 11:22:07;;;;;;;0.25;0.25;;;;;;;;;;6270471;28;20063;-80
2022/04/07 11:25:09;;;;;;;0.75;0.40;;;;;;;;;;6283560;28;20564;-78
2022/04/07 11:28:14;;;;;;;1.42;0.38;;;;;;;;;;6296249;28;20520;-79
2022/04/07 11:31:41;;;;;;;1.58;0.35;;;;;;;;;;6276145;28;20064;-79
2022/04/07 11:34:50;;;;;;;0.30;0.30;;;;;;;;;;6270320;28;20041;-78
2022/04/07 11:37:52;;;;;;;2.53;0.40;;;;;;;;;;6281881;28;20501;-79
2022/04/07 11:41:04;;;;;;;0.30;0.30;;;;;;;;;;6294050;28;20611;-78
2022/04/07 11:44:10;;;;;;;0.60;0.30;;;;;;;;;;6293070;28;20060;-79
2022/04/07 11:47:30;;;;;;;0.40;0.40;;;;;;;;;;6284636;28;20048;-79
2022/04/07 11:50:34;;;;;;;0.10;0.10;;;;;;;;;;6309104;28;20120;-78
2022/04/07 11:53:37;;;;;;;;;;;;;;;;;;6278636;28;20096;-78
2022/04/07 11:56:39;;;;;;;0.38;0.30;;;;;;;;;;6268140;28;19921;-78
2022/04/07 11:59:42;;;;;;;0.20;0.20;;;;;;;;;;6273505;28;20078;-79
2022/04/07 12:02:59;;;;;;;0.20;0.20;;;;;;;;;;6289264;28;20045;-77
2022/04/07 12:06:01;;;;;;;0.30;0.20;;;;;;;;;;6277248;28;20551;-77
2022/04/07 12:09:04;;;;;;;0.10;0.10;;;;;;;;;;6278593;28;20055;-78
2022/04/07 12:12:06;;;;;;;0.50;0.40;;;;;;;;;;6276397;28;20094;-78
2022/04/07 12:15:14;;;;;;;4.57;3.60;;;;;;;;;;6275356;28;20160;-78
2022/04/07 12:18:25;;;;;;;2.00;1.30;;;;;;;;;;6272784;28;20044;-78
2022/04/07 12:21:29;;;;;;;0.93;0.30;;;;;;;;;;6271691;28;20053;-79
2022/04/07 12:24:31;;;;;;;0.50;0.35;;;;;;;;;;6272018;28;20095;-77
2022/04/07 12:27:34;;;;;;;0.30;0.20;;;;;;;;;;6300462;28;20481;-78
2022/04/07 12:30:52;;;;;;;1.38;0.20;;;;;;;;;;6270165;28;20064;-79
2022/04/07 12:33:54;;;;;;;1.00;0.30;;;;;;;;;;6269049;28;20188;-78
2022/04/07 12:36:56;;;;;;;0.38;0.30;;;;;;;;;;6267657;28;20087;-79
2022/04/07 12:40:26;;;;;;;1.90;0.40;;;;;;;;;;6267558;28;20037;-79
2022/04/07 12:43:51;;;;;;;0.30;0.30;;;;;;;;;;6261212;28;20075;-79
2022/04/07 12:46:57;;;;;;;1.02;0.22;;;;;;;;;;6281706;28;20051;-78
2022/04/07 12:50:01;;;;;;;0.20;0.20;;;;;;;;;;6294325;28;20101;-79
2022/04/07 12:53:03;;;;;;;0.20;0.20;;;;;;;;;;6282619;28;20055;-79
2022/04/07 12:56:27;;;;;;;0.63;0.30;;;;;;;;;;6271180;28;20052;-80
2022/04/07 12:59:28;;;;;;;0.68;0.25;;;;;;;;;;6275616;28;20052;-79
2022/04/07 13:03:12;;;;;;;0.30;0.20;;;;;;;;;;6280772;28;20045;-78
2022/04/07 13:06:14;;;;;;;0.50;0.50;;;;;;;;;;6258725;28;20246;-78
2022/04/07 13:09:16;;;;;;;0.20;0.20;;;;;;;;;;6274326;28;20048;-79
2022/04/07 13:12:18;;;;;;;0.23;0.23;;;;;;;;;;6266726;28;20060;-77
2022/04/07 13:15:20;;;;;;;0.50;0.22;;;;;;;;;;6299104;28;20037;-79
2022/04/07 13:18:22;;;;;;;0.88;0.22;;;;;;;;;;6266733;28;20048;-79
2022/04/07 13:21:25;;;;;;;1.20;0.30;;;;;;;;;;6265637;28;20048;-80
2022/04/07 13:24:27;;;;;;;;;;;;;;;;;;6267556;28;20064;-77
2022/04/07 13:27:29;;;;;;;0.45;0.40;;;;;;;;;;6266705;28;20049;-80
2022/04/07 13:30:30;;;;;;;0.30;0.30;;;;;;;;;;6267024;28;20053;-78
2022/04/07 13:33:32;;;;;;;0.88;0.22;;;;;;;;;;6267249;28;20065;-78
2022/04/07 13:36:34;;;;;;;0.30;0.20;;;;;;;;;;6266767;28;20056;-79
2022/04/07 13:39:35;;;;;;;0.40;0.20;;;;;;;;;;6267326;28;20124;-79
2022/04/07 13:42:57;;;;;;;0.40;0.17;;;;;;;;;;6258028;28;20053;-75
2022/04/07 13:45:59;;;;;;;0.90;0.20;;;;;;;;;;6273789;28;20123;-79
2022/04/07 13:49:02;;;;;;;0.28;0.20;;;;;;;;;;6273351;28;20052;-79
2022/04/07 13:52:06;;;;;;;1.83;0.28;;;;;;;;;;6286725;28;20197;-79
2022/04/07 13:55:08;;;;;;;0.20;0.20;;;;;;;;;;6280721;28;20049;-79
2022/04/07 13:58:11;;;;;;;0.47;0.28;;;;;;;;;;6285417;28;20037;-79
2022/04/07 14:01:13;;;;;;;0.20;0.20;;;;;;;;;;6269721;28;20108;-80
2022/04/07 14:04:15;;;;;;;1.10;0.30;;;;;;;;;;6287292;28;20446;-79
2022/04/07 14:07:17;;;;;;;0.22;0.10;;;;;;;;;;6273933;28;20274;-79
2022/04/07 14:10:19;;;;;;;0.75;0.30;;;;;;;;;;6276296;28;20040;-77
2022/04/07 14:13:23;;;;;;;0.63;0.30;;;;;;;;;;6287162;28;20064;-78
2022/04/07 14:16:25;;;;;;;0.30;0.20;;;;;;;;;;6283115;28;20170;-79
2022/04/07 14:19:26;;;;;;;0.70;0.30;;;;;;;;;;6288685;28;20049;-77
2022/04/07 14:22:28;;;;;;;3.50;0.60;;;;;;;;;;6279845;28;20057;-77
2022/04/07 14:25:30;;;;;;;2.05;0.40;;;;;;;;;;6268190;28;20079;-79
2022/04/07 14:28:32;;;;;;;1.75;0.30;;;;;;;;;;6287922;28;20125;-79
2022/04/07 14:31:33;;;;;;;2.58;0.32;;;;;;;;;;6265818;28;20065;-80
2022/04/07 14:34:35;;;;;;;0.68;0.38;;;;;;;;;;6263934;28;20041;-78
2022/04/07 14:37:37;;;;;;;1.38;0.30;;;;;;;;;;6286613;28;20044;-80
2022/04/07 14:40:43;;;;;;;1.85;0.52;;;;;;;;;;6284754;28;20109;-79
2022/04/07 14:43:44;;;;;;;1.08;0.30;;;;;;;;;;6289114;28;20071;-79
2022/04/07 14:46:51;;;;;;;2.03;0.47;;;;;;;;;;6281477;28;20133;-78
2022/04/07 14:49:53;;;;;;;1.85;0.55;;;;;;;;;;6293305;28;20040;-78
2022/04/07 14:52:54;;;;;;;0.90;0.30;;;;;;;;;;6283885;28;20203;-76
2022/04/07 14:55:56;;;;;;;0.93;0.40;;;;;;;;;;6271508;28;20071;-78
2022/04/07 14:58:58;;;;;;;1.48;0.30;;;;;;;;;;6283419;28;20111;-77
2022/04/07 15:02:00;;;;;;;2.28;0.50;;;;;;;;;;6282144;28;20123;-78
2022/04/07 15:05:02;;;;;;;3.72;0.50;;;;;;;;;;6298794;28;20040;-78
2022/04/07 15:08:05;;;;;;;4.20;0.60;;;;;;;;;;6282782;28;20225;-78
2022/04/07 15:11:07;;;;;;;2.38;0.40;;;;;;;;;;6260842;28;20085;-79
2022/04/07 15:14:08;;;;;;;1.10;0.53;;;;;;;;;;6262014;28;20071;-79
2022/04/07 15:17:11;;;;;;;2.72;0.30;;;;;;;;;;6282997;28;20040;-78
2022/04/07 15:20:13;;;;;;;0.80;0.40;;;;;;;;;;6273184;28;20127;-77
2022/04/07 15:23:14;;;;;;;1.45;0.60;;;;;;;;;;6274085;28;20479;-78
2022/04/07 15:26:16;;;;;;;3.03;0.50;;;;;;;;;;6288928;28;20041;-80
2022/04/07 15:29:18;;;;;;;0.20;0.20;;;;;;;;;;6271763;28;20120;-79
2022/04/07 15:32:19;;;;;;;3.33;0.40;;;;;;;;;;6277954;28;20060;-79
2022/04/07 15:35:21;;;;;;;2.17;0.50;;;;;;;;;;6269627;28;20175;-79
2022/04/07 15:38:23;;;;;;;3.17;0.73;;;;;;;;;;6287757;28;20041;-78
2022/04/07 15:41:24;;;;;;;2.30;0.40;;;;;;;;;;6278086;28;20098;-80
2022/04/07 15:44:26;;;;;;;1.55;0.50;;;;;;;;;;6287171;28;20060;-81
2022/04/07 15:47:28;;;;;;;1.65;0.50;;;;;;;;;;6282177;28;20127;-78
2022/04/07 15:50:29;;;;;;;2.05;0.47;;;;;;;;;;6288441;28;20094;-79
2022/04/07 15:53:31;;;;;;;3.28;0.50;;;;;;;;;;6289750;28;20082;-80
2022/04/07 15:56:33;;;;;;;1.73;0.43;;;;;;;;;;6294817;28;20120;-81
2022/04/07 15:59:34;;;;;;;4.07;0.40;;;;;;;;;;6288895;28;20135;-79
2022/04/07 16:02:37;;;;;;;2.05;0.60;;;;;;;;;;6280276;28;20064;-81
2022/04/07 16:05:38;;;;;;;5.67;0.40;;;;;;;;;;6283804;28;20131;-77
2022/04/07 16:08:41;;;;;;;1.50;0.43;;;;;;;;;;6282304;28;20047;-80
2022/04/07 16:11:42;;;;;;;1.92;0.60;;;;;;;;;;6275368;28;20755;-80
2022/04/07 16:14:47;;;;;;;1.60;0.75;;;;;;;;;;6249719;28;20187;-79
2022/04/07 16:17:48;;;;;;;0.60;0.40;;;;;;;;;;6248314;28;20104;-78
2022/04/07 16:20:50;;;;;;;3.10;0.50;;;;;;;;;;6270673;28;20036;-80
2022/04/07 16:23:52;;;;;;;1.75;0.55;;;;;;;;;;6306778;28;20083;-78
2022/04/07 16:26:54;;;;;;;4.57;0.77;;;;;;;;;;6280895;28;20057;-80
2022/04/07 16:29:55;;;;;;;2.55;0.80;;;;;;;;;;6301416;27;20051;-77
2022/04/07 16:32:58;;;;;;;1.02;0.60;;;;;;;;;;6291021;28;20111;-78
2022/04/07 16:35:59;;;;;;;1.87;0.90;;;;;;;;;;6293065;28;20064;-81
2022/04/07 16:39:02;;;;;;;3.65;1.00;;;;;;;;;;6305652;28;20060;-81
2022/04/07 16:42:04;;;;;;;4.75;0.90;;;;;;;;;;6296182;28;20422;-81
2022/04/07 16:45:06;;;;;;;3.17;0.60;;;;;;;;;;6279664;28;20096;-80
2022/04/07 16:48:08;;;;;;;2.35;0.80;;;;;;;;;;6296121;28;20121;-80
2022/04/07 16:51:10;;;;;;;5.35;1.05;;;;;;;;;;6294951;28;20052;-80
2022/04/07 16:54:11;;;;;;;4.57;0.80;;;;;;;;;;6254202;28;20399;-79
2022/04/07 16:57:14;;;;;;;6.13;1.02;;;;;;;;;;6285504;28;20055;-80
2022/04/07 17:00:16;;;;;;;6.87;0.70;;;;;;;;;;6258258;28;20053;-79
2022/04/07 17:03:17;;;;;;;3.30;0.80;;;;;;;;;;6258359;28;20105;-79
2022/04/07 17:06:19;;;;;;;3.95;0.75;;;;;;;;;;6290696;28;20055;-79
2022/04/07 17:09:21;;;;;;;4.20;0.77;;;;;;;;;;6282522;28;20127;-78
2022/04/07 17:12:26;;;;;;;3.70;1.15;;;;;;;;;;6274371;28;20130;-79
2022/04/07 17:15:29;;;;;;;3.08;0.70;;;;;;;;;;6256840;28;20449;-78
2022/04/07 17:18:31;;;;;;;2.58;0.80;;;;;;;;;;6256922;28;20049;-80
2022/04/07 17:21:34;;;;;;;4.05;0.73;;;;;;;;;;6248051;28;20632;-79
2022/04/07 17:24:37;;;;;;;4.32;0.85;;;;;;;;;;6274557;28;20048;-79
2022/04/07 17:27:42;;;;;;;3.55;0.60;;;;;;;;;;6269959;28;20161;-77
2022/04/07 17:30:44;;;;;;;4.50;0.80;;;;;;;;;;6280133;28;20072;-78
2022/04/07 17:33:50;;;;;;;3.30;0.60;;;;;;;;;;6287314;28;20048;-79
2022/04/07 17:36:52;;;;;;;3.10;0.80;;;;;;;;;;6290242;28;20071;-80
2022/04/07 17:39:54;;;;;;;2.35;0.68;;;;;;;;;;6289143;28;20040;-76
2022/04/07 17:42:56;;;;;;;4.65;1.10;;;;;;;;;;6293241;28;20178;-76
2022/04/07 17:45:57;;;;;;;4.72;0.88;;;;;;;;;;6274069;28;20098;-80
2022/04/07 17:48:59;;;;;;;2.47;0.60;;;;;;;;;;6294946;28;20509;-80
2022/04/07 17:52:01;;;;;;;2.38;0.73;;;;;;;;;;6285550;28;20044;-79
2022/04/07 17:55:03;;;;;;;4.72;0.95;;;;;;;;;;6270770;28;20116;-78
2022/04/07 17:58:09;;;;;;;1.38;0.68;;;;;;;;;;6267803;28;20044;-80
2022/04/07 18:01:11;;;;;;;4.28;0.90;;;;;;;;;;6249782;28;20113;-76
2022/04/07 18:04:14;;;;;;;3.45;0.80;;;;;;;;;;6257720;28;20045;-78
2022/04/07 18:07:16;;;;;;;2.75;0.60;;;;;;;;;;6276339;28;20068;-79
2022/04/07 18:10:17;;;;;;;4.40;0.73;;;;;;;;;;6267939;28;20045;-78
2022/04/07 18:13:20;;;;;;;2.08;0.80;;;;;;;;;;6265808;28;20160;-80
2022/04/07 18:16:22;;;;;;;5.97;0.80;;;;;;;;;;6275305;28;20047;-78
2022/04/07 18:19:24;;;;;;;1.98;0.60;;;;;;;;;;6289814;28;20424;-78